sensor_id;sensor_type;location;lat;lon;timestamp;P1;durP1;ratioP1;P2;durP2;ratioP2
68050;SDS011;54839;51.364;7.246;2023-02-04T00:01:37;22.97;;;6.23;;
68050;SDS011;54839;51.364;7.246;2023-02-04T00:04:03;15.23;;;4.87;;
68050;SDS011;54839;51.364;7.246;2023-02-04T00:06:28;36.87;;;6.73;;
68050;SDS011;54839;51.364;7.246;2023-02-04T00:08:54;23.20;;;5.43;;
68050;SDS011;54839;51.364;7.246;2023-02-04T00:11:19;29.97;;;6.90;;
68050;SDS011;54839;51.364;7.246;2023-02-04T00:13:45;18.37;;;5.17;;
68050;SDS011;54839;51.364;7.246;2023-02-04T00:16:10;19.03;;;6.23;;
68050;SDS011;54839;51.364;7.246;2023-02-04T00:18:36;28.57;;;5.50;;
68050;SDS011;54839;51.364;7.246;2023-02-04T00:21:02;21.87;;;5.33;;
68050;SDS011;54839;51.364;7.246;2023-02-04T00:23:27;17.77;;;4.73;;
68050;SDS011;54839;51.364;7.246;2023-02-04T00:25:53;26.33;;;5.33;;
68050;SDS011;54839;51.364;7.246;2023-02-04T00:28:18;21.30;;;5.23;;
68050;SDS011;54839;51.364;7.246;2023-02-04T00:30:44;33.93;;;6.40;;
68050;SDS011;54839;51.364;7.246;2023-02-04T00:33:11;27.73;;;5.80;;
68050;SDS011;54839;51.364;7.246;2023-02-04T00:35:36;14.40;;;4.50;;
68050;SDS011;54839;51.364;7.246;2023-02-04T00:38:03;32.87;;;6.70;;
68050;SDS011;54839;51.364;7.246;2023-02-04T00:40:29;30.83;;;5.40;;
68050;SDS011;54839;51.364;7.246;2023-02-04T00:42:54;19.87;;;5.60;;
68050;SDS011;54839;51.364;7.246;2023-02-04T00:45:20;20.73;;;7.93;;
68050;SDS011;54839;51.364;7.246;2023-02-04T00:47:45;24.93;;;6.37;;
68050;SDS011;54839;51.364;7.246;2023-02-04T00:50:11;21.00;;;6.00;;
68050;SDS011;54839;51.364;7.246;2023-02-04T00:52:37;24.73;;;5.70;;
68050;SDS011;54839;51.364;7.246;2023-02-04T00:55:02;23.83;;;5.90;;
68050;SDS011;54839;51.364;7.246;2023-02-04T00:57:28;21.60;;;5.20;;
68050;SDS011;54839;51.364;7.246;2023-02-04T00:59:54;30.40;;;5.57;;
68050;SDS011;54839;51.364;7.246;2023-02-04T01:02:19;17.70;;;5.23;;
68050;SDS011;54839;51.364;7.246;2023-02-04T01:04:45;19.33;;;5.43;;
68050;SDS011;54839;51.364;7.246;2023-02-04T01:07:10;30.80;;;5.77;;
68050;SDS011;54839;51.364;7.246;2023-02-04T01:09:36;15.67;;;4.63;;
68050;SDS011;54839;51.364;7.246;2023-02-04T01:12:01;18.40;;;5.40;;
68050;SDS011;54839;51.364;7.246;2023-02-04T01:14:27;21.47;;;5.23;;
68050;SDS011;54839;51.364;7.246;2023-02-04T01:16:52;24.00;;;6.10;;
68050;SDS011;54839;51.364;7.246;2023-02-04T01:19:18;21.07;;;5.67;;
68050;SDS011;54839;51.364;7.246;2023-02-04T01:21:44;25.30;;;6.00;;
68050;SDS011;54839;51.364;7.246;2023-02-04T01:24:10;27.57;;;5.47;;
68050;SDS011;54839;51.364;7.246;2023-02-04T01:26:36;29.23;;;6.83;;
68050;SDS011;54839;51.364;7.246;2023-02-04T01:29:02;17.03;;;5.87;;
68050;SDS011;54839;51.364;7.246;2023-02-04T01:31:28;24.90;;;5.40;;
68050;SDS011;54839;51.364;7.246;2023-02-04T01:33:55;18.57;;;5.60;;
68050;SDS011;54839;51.364;7.246;2023-02-04T01:36:21;30.00;;;6.97;;
68050;SDS011;54839;51.364;7.246;2023-02-04T01:38:47;33.70;;;5.83;;
68050;SDS011;54839;51.364;7.246;2023-02-04T01:41:13;20.80;;;5.00;;
68050;SDS011;54839;51.364;7.246;2023-02-04T01:43:40;33.33;;;5.83;;
68050;SDS011;54839;51.364;7.246;2023-02-04T01:46:05;25.00;;;6.30;;
68050;SDS011;54839;51.364;7.246;2023-02-04T01:48:31;16.33;;;4.77;;
68050;SDS011;54839;51.364;7.246;2023-02-04T01:51:05;26.07;;;7.50;;
68050;SDS011;54839;51.364;7.246;2023-02-04T01:53:32;28.23;;;6.30;;
68050;SDS011;54839;51.364;7.246;2023-02-04T01:55:59;23.40;;;6.90;;
68050;SDS011;54839;51.364;7.246;2023-02-04T01:58:25;27.00;;;5.67;;
68050;SDS011;54839;51.364;7.246;2023-02-04T02:00:53;16.23;;;5.20;;
68050;SDS011;54839;51.364;7.246;2023-02-04T02:03:19;24.10;;;4.93;;
68050;SDS011;54839;51.364;7.246;2023-02-04T02:05:51;36.30;;;5.73;;
68050;SDS011;54839;51.364;7.246;2023-02-04T02:08:18;22.10;;;5.33;;
68050;SDS011;54839;51.364;7.246;2023-02-04T02:10:45;19.23;;;4.50;;
68050;SDS011;54839;51.364;7.246;2023-02-04T02:13:14;15.40;;;5.07;;
68050;SDS011;54839;51.364;7.246;2023-02-04T02:15:42;22.73;;;5.77;;
68050;SDS011;54839;51.364;7.246;2023-02-04T02:18:08;22.20;;;5.37;;
68050;SDS011;54839;51.364;7.246;2023-02-04T02:20:34;28.53;;;5.20;;
68050;SDS011;54839;51.364;7.246;2023-02-04T02:26:09;19.73;;;5.30;;
68050;SDS011;54839;51.364;7.246;2023-02-04T02:28:35;29.77;;;6.23;;
68050;SDS011;54839;51.364;7.246;2023-02-04T02:31:01;22.43;;;5.40;;
68050;SDS011;54839;51.364;7.246;2023-02-04T02:33:27;22.17;;;6.80;;
68050;SDS011;54839;51.364;7.246;2023-02-04T02:35:52;28.77;;;4.70;;
68050;SDS011;54839;51.364;7.246;2023-02-04T02:38:18;23.27;;;6.13;;
68050;SDS011;54839;51.364;7.246;2023-02-04T02:40:44;25.33;;;6.33;;
68050;SDS011;54839;51.364;7.246;2023-02-04T02:43:17;16.63;;;4.83;;
68050;SDS011;54839;51.364;7.246;2023-02-04T02:45:45;26.67;;;6.97;;
68050;SDS011;54839;51.364;7.246;2023-02-04T02:48:12;21.37;;;5.77;;
68050;SDS011;54839;51.364;7.246;2023-02-04T02:50:37;23.57;;;6.40;;
68050;SDS011;54839;51.364;7.246;2023-02-04T02:53:04;35.57;;;7.97;;
68050;SDS011;54839;51.364;7.246;2023-02-04T02:55:34;24.37;;;5.40;;
68050;SDS011;54839;51.364;7.246;2023-02-04T02:58:00;19.20;;;5.93;;
68050;SDS011;54839;51.364;7.246;2023-02-04T03:00:26;23.50;;;5.83;;
68050;SDS011;54839;51.364;7.246;2023-02-04T03:02:57;25.93;;;5.93;;
68050;SDS011;54839;51.364;7.246;2023-02-04T03:05:28;26.57;;;6.80;;
68050;SDS011;54839;51.364;7.246;2023-02-04T03:07:56;18.67;;;5.10;;
68050;SDS011;54839;51.364;7.246;2023-02-04T03:10:22;22.07;;;5.90;;
68050;SDS011;54839;51.364;7.246;2023-02-04T03:12:47;22.43;;;6.87;;
68050;SDS011;54839;51.364;7.246;2023-02-04T03:15:13;31.17;;;6.97;;
68050;SDS011;54839;51.364;7.246;2023-02-04T03:17:39;24.37;;;5.53;;
68050;SDS011;54839;51.364;7.246;2023-02-04T03:20:05;25.67;;;6.33;;
68050;SDS011;54839;51.364;7.246;2023-02-04T03:22:32;17.37;;;5.70;;
68050;SDS011;54839;51.364;7.246;2023-02-04T03:24:58;19.60;;;6.30;;
68050;SDS011;54839;51.364;7.246;2023-02-04T03:27:23;25.07;;;6.00;;
68050;SDS011;54839;51.364;7.246;2023-02-04T03:29:49;27.50;;;6.23;;
68050;SDS011;54839;51.364;7.246;2023-02-04T03:32:15;19.67;;;4.80;;
68050;SDS011;54839;51.364;7.246;2023-02-04T03:34:41;26.60;;;5.30;;
68050;SDS011;54839;51.364;7.246;2023-02-04T03:37:06;30.87;;;6.17;;
68050;SDS011;54839;51.364;7.246;2023-02-04T03:39:32;27.13;;;5.77;;
68050;SDS011;54839;51.364;7.246;2023-02-04T03:41:58;16.17;;;4.63;;
68050;SDS011;54839;51.364;7.246;2023-02-04T03:44:23;26.00;;;6.27;;
68050;SDS011;54839;51.364;7.246;2023-02-04T03:46:51;20.13;;;5.17;;
68050;SDS011;54839;51.364;7.246;2023-02-04T03:49:19;22.10;;;5.40;;
68050;SDS011;54839;51.364;7.246;2023-02-04T03:51:48;31.40;;;5.90;;
68050;SDS011;54839;51.364;7.246;2023-02-04T03:54:13;28.00;;;6.83;;
68050;SDS011;54839;51.364;7.246;2023-02-04T03:56:39;25.60;;;5.53;;
68050;SDS011;54839;51.364;7.246;2023-02-04T03:59:04;17.93;;;5.37;;
68050;SDS011;54839;51.364;7.246;2023-02-04T04:01:30;30.17;;;6.10;;
68050;SDS011;54839;51.364;7.246;2023-02-04T04:03:55;16.47;;;5.13;;
68050;SDS011;54839;51.364;7.246;2023-02-04T04:06:21;22.77;;;7.23;;
68050;SDS011;54839;51.364;7.246;2023-02-04T04:08:46;26.27;;;6.13;;
68050;SDS011;54839;51.364;7.246;2023-02-04T04:11:12;34.67;;;7.30;;
68050;SDS011;54839;51.364;7.246;2023-02-04T04:13:38;31.63;;;7.30;;
68050;SDS011;54839;51.364;7.246;2023-02-04T04:16:03;31.43;;;6.13;;
68050;SDS011;54839;51.364;7.246;2023-02-04T04:18:29;26.10;;;5.80;;
68050;SDS011;54839;51.364;7.246;2023-02-04T04:20:56;27.20;;;5.70;;
68050;SDS011;54839;51.364;7.246;2023-02-04T04:23:23;31.77;;;6.80;;
68050;SDS011;54839;51.364;7.246;2023-02-04T04:25:48;29.87;;;5.47;;
68050;SDS011;54839;51.364;7.246;2023-02-04T04:28:14;18.87;;;5.20;;
68050;SDS011;54839;51.364;7.246;2023-02-04T04:30:39;19.70;;;5.00;;
68050;SDS011;54839;51.364;7.246;2023-02-04T04:33:05;35.23;;;5.47;;
68050;SDS011;54839;51.364;7.246;2023-02-04T04:35:30;18.30;;;5.90;;
68050;SDS011;54839;51.364;7.246;2023-02-04T04:37:56;37.23;;;7.80;;
68050;SDS011;54839;51.364;7.246;2023-02-04T04:40:21;25.20;;;6.20;;
68050;SDS011;54839;51.364;7.246;2023-02-04T04:42:47;25.17;;;4.53;;
68050;SDS011;54839;51.364;7.246;2023-02-04T04:45:12;24.70;;;4.80;;
68050;SDS011;54839;51.364;7.246;2023-02-04T04:47:38;22.47;;;8.33;;
68050;SDS011;54839;51.364;7.246;2023-02-04T04:50:04;37.13;;;7.70;;
68050;SDS011;54839;51.364;7.246;2023-02-04T04:52:30;26.03;;;5.93;;
68050;SDS011;54839;51.364;7.246;2023-02-04T04:54:55;18.47;;;4.50;;
68050;SDS011;54839;51.364;7.246;2023-02-04T04:57:21;31.73;;;5.83;;
68050;SDS011;54839;51.364;7.246;2023-02-04T04:59:46;24.20;;;5.87;;
68050;SDS011;54839;51.364;7.246;2023-02-04T05:02:12;24.87;;;6.10;;
68050;SDS011;54839;51.364;7.246;2023-02-04T05:04:37;21.73;;;5.63;;
68050;SDS011;54839;51.364;7.246;2023-02-04T05:07:03;28.77;;;6.30;;
68050;SDS011;54839;51.364;7.246;2023-02-04T05:09:28;31.97;;;7.80;;
68050;SDS011;54839;51.364;7.246;2023-02-04T05:11:54;24.17;;;6.20;;
68050;SDS011;54839;51.364;7.246;2023-02-04T05:14:20;22.50;;;5.70;;
68050;SDS011;54839;51.364;7.246;2023-02-04T05:16:45;24.83;;;6.50;;
68050;SDS011;54839;51.364;7.246;2023-02-04T05:19:11;26.13;;;5.90;;
68050;SDS011;54839;51.364;7.246;2023-02-04T05:21:36;38.37;;;7.83;;
68050;SDS011;54839;51.364;7.246;2023-02-04T05:24:02;33.67;;;5.50;;
68050;SDS011;54839;51.364;7.246;2023-02-04T05:26:30;27.43;;;6.40;;
68050;SDS011;54839;51.364;7.246;2023-02-04T05:28:56;23.50;;;7.20;;
68050;SDS011;54839;51.364;7.246;2023-02-04T05:31:21;25.50;;;5.60;;
68050;SDS011;54839;51.364;7.246;2023-02-04T05:33:47;26.30;;;5.40;;
68050;SDS011;54839;51.364;7.246;2023-02-04T05:36:12;26.93;;;6.27;;
68050;SDS011;54839;51.364;7.246;2023-02-04T05:38:38;28.07;;;6.47;;
68050;SDS011;54839;51.364;7.246;2023-02-04T05:41:03;31.73;;;7.90;;
68050;SDS011;54839;51.364;7.246;2023-02-04T05:43:29;25.07;;;6.20;;
68050;SDS011;54839;51.364;7.246;2023-02-04T05:45:54;30.20;;;5.47;;
68050;SDS011;54839;51.364;7.246;2023-02-04T05:48:21;26.43;;;5.73;;
68050;SDS011;54839;51.364;7.246;2023-02-04T05:50:47;33.33;;;6.03;;
68050;SDS011;54839;51.364;7.246;2023-02-04T05:53:12;35.53;;;5.90;;
68050;SDS011;54839;51.364;7.246;2023-02-04T05:55:38;39.27;;;7.27;;
68050;SDS011;54839;51.364;7.246;2023-02-04T05:58:03;29.20;;;6.37;;
68050;SDS011;54839;51.364;7.246;2023-02-04T06:00:29;30.37;;;7.57;;
68050;SDS011;54839;51.364;7.246;2023-02-04T06:02:54;28.27;;;5.97;;
68050;SDS011;54839;51.364;7.246;2023-02-04T06:05:20;16.93;;;5.93;;
68050;SDS011;54839;51.364;7.246;2023-02-04T06:07:47;24.27;;;5.73;;
68050;SDS011;54839;51.364;7.246;2023-02-04T06:10:12;32.10;;;7.40;;
68050;SDS011;54839;51.364;7.246;2023-02-04T06:12:38;41.00;;;7.33;;
68050;SDS011;54839;51.364;7.246;2023-02-04T06:15:04;34.63;;;6.53;;
68050;SDS011;54839;51.364;7.246;2023-02-04T06:17:30;32.23;;;6.30;;
68050;SDS011;54839;51.364;7.246;2023-02-04T06:19:55;22.13;;;6.40;;
68050;SDS011;54839;51.364;7.246;2023-02-04T06:22:21;24.27;;;5.97;;
68050;SDS011;54839;51.364;7.246;2023-02-04T06:24:48;27.80;;;6.10;;
68050;SDS011;54839;51.364;7.246;2023-02-04T06:27:14;21.07;;;5.00;;
68050;SDS011;54839;51.364;7.246;2023-02-04T06:29:47;26.27;;;6.10;;
68050;SDS011;54839;51.364;7.246;2023-02-04T06:32:16;21.83;;;6.70;;
68050;SDS011;54839;51.364;7.246;2023-02-04T06:34:42;21.00;;;4.70;;
68050;SDS011;54839;51.364;7.246;2023-02-04T06:37:08;37.03;;;7.17;;
68050;SDS011;54839;51.364;7.246;2023-02-04T06:39:33;20.17;;;4.97;;
68050;SDS011;54839;51.364;7.246;2023-02-04T06:41:59;27.53;;;6.27;;
68050;SDS011;54839;51.364;7.246;2023-02-04T06:44:24;26.17;;;7.63;;
68050;SDS011;54839;51.364;7.246;2023-02-04T06:46:50;21.23;;;5.57;;
68050;SDS011;54839;51.364;7.246;2023-02-04T06:49:15;32.50;;;7.23;;
68050;SDS011;54839;51.364;7.246;2023-02-04T06:51:41;18.93;;;5.50;;
68050;SDS011;54839;51.364;7.246;2023-02-04T06:54:06;26.60;;;4.60;;
68050;SDS011;54839;51.364;7.246;2023-02-04T06:56:32;25.93;;;6.03;;
68050;SDS011;54839;51.364;7.246;2023-02-04T06:58:57;25.97;;;5.63;;
68050;SDS011;54839;51.364;7.246;2023-02-04T07:01:23;24.73;;;5.77;;
68050;SDS011;54839;51.364;7.246;2023-02-04T07:03:49;23.33;;;6.07;;
68050;SDS011;54839;51.364;7.246;2023-02-04T07:06:14;35.60;;;5.90;;
68050;SDS011;54839;51.364;7.246;2023-02-04T07:08:40;32.13;;;6.47;;
68050;SDS011;54839;51.364;7.246;2023-02-04T07:11:05;26.37;;;6.30;;
68050;SDS011;54839;51.364;7.246;2023-02-04T07:13:31;24.17;;;6.77;;
68050;SDS011;54839;51.364;7.246;2023-02-04T07:15:56;23.70;;;7.00;;
68050;SDS011;54839;51.364;7.246;2023-02-04T07:18:22;25.33;;;5.50;;
68050;SDS011;54839;51.364;7.246;2023-02-04T07:20:48;27.50;;;6.23;;
68050;SDS011;54839;51.364;7.246;2023-02-04T07:23:13;45.13;;;8.27;;
68050;SDS011;54839;51.364;7.246;2023-02-04T07:25:38;28.40;;;5.67;;
68050;SDS011;54839;51.364;7.246;2023-02-04T07:28:04;21.67;;;5.63;;
68050;SDS011;54839;51.364;7.246;2023-02-04T07:30:30;24.47;;;6.70;;
68050;SDS011;54839;51.364;7.246;2023-02-04T07:32:56;24.17;;;6.00;;
68050;SDS011;54839;51.364;7.246;2023-02-04T07:35:21;26.07;;;6.00;;
68050;SDS011;54839;51.364;7.246;2023-02-04T07:37:48;23.93;;;5.67;;
68050;SDS011;54839;51.364;7.246;2023-02-04T07:40:14;25.40;;;5.63;;
68050;SDS011;54839;51.364;7.246;2023-02-04T07:42:40;22.53;;;6.70;;
68050;SDS011;54839;51.364;7.246;2023-02-04T07:45:06;26.83;;;7.13;;
68050;SDS011;54839;51.364;7.246;2023-02-04T07:47:32;27.57;;;7.40;;
68050;SDS011;54839;51.364;7.246;2023-02-04T07:49:57;22.50;;;6.10;;
68050;SDS011;54839;51.364;7.246;2023-02-04T07:52:23;23.47;;;6.00;;
68050;SDS011;54839;51.364;7.246;2023-02-04T07:54:49;24.30;;;6.13;;
68050;SDS011;54839;51.364;7.246;2023-02-04T07:57:16;28.63;;;6.80;;
68050;SDS011;54839;51.364;7.246;2023-02-04T07:59:42;18.60;;;5.43;;
68050;SDS011;54839;51.364;7.246;2023-02-04T08:02:08;33.20;;;6.50;;
68050;SDS011;54839;51.364;7.246;2023-02-04T08:04:35;31.53;;;6.93;;
68050;SDS011;54839;51.364;7.246;2023-02-04T08:07:01;24.17;;;5.70;;
68050;SDS011;54839;51.364;7.246;2023-02-04T08:09:27;25.70;;;6.63;;
68050;SDS011;54839;51.364;7.246;2023-02-04T08:11:53;30.47;;;8.07;;
68050;SDS011;54839;51.364;7.246;2023-02-04T08:14:18;19.90;;;5.97;;
68050;SDS011;54839;51.364;7.246;2023-02-04T08:16:44;38.27;;;8.40;;
68050;SDS011;54839;51.364;7.246;2023-02-04T08:19:09;31.63;;;8.27;;
68050;SDS011;54839;51.364;7.246;2023-02-04T08:21:35;19.73;;;6.10;;
68050;SDS011;54839;51.364;7.246;2023-02-04T08:24:01;33.37;;;7.27;;
68050;SDS011;54839;51.364;7.246;2023-02-04T08:26:26;18.13;;;5.20;;
68050;SDS011;54839;51.364;7.246;2023-02-04T08:28:51;33.13;;;6.10;;
68050;SDS011;54839;51.364;7.246;2023-02-04T08:31:17;23.70;;;8.03;;
68050;SDS011;54839;51.364;7.246;2023-02-04T08:33:42;35.30;;;7.93;;
68050;SDS011;54839;51.364;7.246;2023-02-04T08:36:08;34.37;;;8.33;;
68050;SDS011;54839;51.364;7.246;2023-02-04T08:38:34;28.23;;;6.67;;
68050;SDS011;54839;51.364;7.246;2023-02-04T08:40:59;27.20;;;6.67;;
68050;SDS011;54839;51.364;7.246;2023-02-04T08:43:25;19.07;;;7.30;;
68050;SDS011;54839;51.364;7.246;2023-02-04T08:45:51;18.63;;;5.60;;
68050;SDS011;54839;51.364;7.246;2023-02-04T08:48:16;25.90;;;7.10;;
68050;SDS011;54839;51.364;7.246;2023-02-04T08:50:42;27.33;;;6.80;;
68050;SDS011;54839;51.364;7.246;2023-02-04T08:53:07;25.67;;;5.67;;
68050;SDS011;54839;51.364;7.246;2023-02-04T08:55:33;25.90;;;8.90;;
68050;SDS011;54839;51.364;7.246;2023-02-04T08:57:58;33.87;;;7.30;;
68050;SDS011;54839;51.364;7.246;2023-02-04T09:00:25;33.73;;;8.73;;
68050;SDS011;54839;51.364;7.246;2023-02-04T09:02:51;29.30;;;6.63;;
68050;SDS011;54839;51.364;7.246;2023-02-04T09:05:16;37.63;;;7.57;;
68050;SDS011;54839;51.364;7.246;2023-02-04T09:07:42;29.97;;;7.80;;
68050;SDS011;54839;51.364;7.246;2023-02-04T09:10:07;33.27;;;6.80;;
68050;SDS011;54839;51.364;7.246;2023-02-04T09:12:33;23.60;;;7.63;;
68050;SDS011;54839;51.364;7.246;2023-02-04T09:14:59;42.30;;;7.93;;
68050;SDS011;54839;51.364;7.246;2023-02-04T09:17:24;29.00;;;7.93;;
68050;SDS011;54839;51.364;7.246;2023-02-04T09:19:50;26.60;;;7.70;;
68050;SDS011;54839;51.364;7.246;2023-02-04T09:22:15;30.57;;;6.47;;
68050;SDS011;54839;51.364;7.246;2023-02-04T09:24:41;25.03;;;6.53;;
68050;SDS011;54839;51.364;7.246;2023-02-04T09:27:06;30.13;;;7.40;;
68050;SDS011;54839;51.364;7.246;2023-02-04T09:29:32;35.30;;;8.33;;
68050;SDS011;54839;51.364;7.246;2023-02-04T09:31:57;29.80;;;7.47;;
68050;SDS011;54839;51.364;7.246;2023-02-04T09:34:23;30.57;;;9.27;;
68050;SDS011;54839;51.364;7.246;2023-02-04T09:36:49;27.57;;;7.17;;
68050;SDS011;54839;51.364;7.246;2023-02-04T09:39:14;30.80;;;7.13;;
68050;SDS011;54839;51.364;7.246;2023-02-04T09:41:40;29.33;;;7.00;;
68050;SDS011;54839;51.364;7.246;2023-02-04T09:44:13;29.70;;;7.07;;
68050;SDS011;54839;51.364;7.246;2023-02-04T09:46:54;31.27;;;7.33;;
68050;SDS011;54839;51.364;7.246;2023-02-04T09:49:22;31.73;;;7.80;;
68050;SDS011;54839;51.364;7.246;2023-02-04T09:51:48;29.07;;;7.50;;
68050;SDS011;54839;51.364;7.246;2023-02-04T09:54:16;25.60;;;7.50;;
68050;SDS011;54839;51.364;7.246;2023-02-04T09:56:43;32.80;;;8.03;;
68050;SDS011;54839;51.364;7.246;2023-02-04T09:59:10;29.90;;;8.00;;
68050;SDS011;54839;51.364;7.246;2023-02-04T10:01:37;25.67;;;8.33;;
68050;SDS011;54839;51.364;7.246;2023-02-04T10:04:03;31.13;;;7.50;;
68050;SDS011;54839;51.364;7.246;2023-02-04T10:06:29;28.73;;;9.80;;
68050;SDS011;54839;51.364;7.246;2023-02-04T10:08:54;30.40;;;10.10;;
68050;SDS011;54839;51.364;7.246;2023-02-04T10:11:21;25.50;;;7.60;;
68050;SDS011;54839;51.364;7.246;2023-02-04T10:13:50;25.63;;;7.83;;
68050;SDS011;54839;51.364;7.246;2023-02-04T10:16:19;25.13;;;7.00;;
68050;SDS011;54839;51.364;7.246;2023-02-04T10:18:57;33.50;;;7.57;;
68050;SDS011;54839;51.364;7.246;2023-02-04T10:21:26;22.47;;;7.07;;
68050;SDS011;54839;51.364;7.246;2023-02-04T10:23:54;31.43;;;8.57;;
68050;SDS011;54839;51.364;7.246;2023-02-04T10:26:21;27.07;;;7.57;;
68050;SDS011;54839;51.364;7.246;2023-02-04T10:28:56;28.23;;;7.23;;
68050;SDS011;54839;51.364;7.246;2023-02-04T10:31:56;27.03;;;7.40;;
68050;SDS011;54839;51.364;7.246;2023-02-04T10:37:10;27.27;;;7.10;;
68050;SDS011;54839;51.364;7.246;2023-02-04T10:39:42;23.37;;;7.00;;
68050;SDS011;54839;51.364;7.246;2023-02-04T10:44:49;27.63;;;7.73;;
68050;SDS011;54839;51.364;7.246;2023-02-04T10:47:22;25.50;;;6.60;;
68050;SDS011;54839;51.364;7.246;2023-02-04T10:52:38;17.53;;;6.33;;
68050;SDS011;54839;51.364;7.246;2023-02-04T10:55:07;20.37;;;7.00;;
68050;SDS011;54839;51.364;7.246;2023-02-04T10:57:38;29.87;;;7.20;;
68050;SDS011;54839;51.364;7.246;2023-02-04T11:00:06;29.03;;;7.50;;
68050;SDS011;54839;51.364;7.246;2023-02-04T11:05:13;28.17;;;7.90;;
68050;SDS011;54839;51.364;7.246;2023-02-04T11:07:40;20.13;;;6.13;;
68050;SDS011;54839;51.364;7.246;2023-02-04T11:10:10;20.10;;;8.03;;
68050;SDS011;54839;51.364;7.246;2023-02-04T11:12:42;25.43;;;8.17;;
68050;SDS011;54839;51.364;7.246;2023-02-04T11:20:48;27.83;;;9.03;;
68050;SDS011;54839;51.364;7.246;2023-02-04T11:31:03;27.43;;;9.30;;
68050;SDS011;54839;51.364;7.246;2023-02-04T11:44:59;28.47;;;10.60;;
68050;SDS011;54839;51.364;7.246;2023-02-04T11:47:27;27.43;;;10.30;;
68050;SDS011;54839;51.364;7.246;2023-02-04T11:50:00;29.43;;;10.13;;
68050;SDS011;54839;51.364;7.246;2023-02-04T11:52:28;26.03;;;8.87;;
68050;SDS011;54839;51.364;7.246;2023-02-04T11:54:54;20.40;;;8.67;;
68050;SDS011;54839;51.364;7.246;2023-02-04T11:57:22;27.87;;;9.00;;
68050;SDS011;54839;51.364;7.246;2023-02-04T11:59:48;27.03;;;9.23;;
68050;SDS011;54839;51.364;7.246;2023-02-04T12:04:49;24.53;;;7.73;;
68050;SDS011;54839;51.364;7.246;2023-02-04T12:07:35;25.20;;;8.77;;
68050;SDS011;54839;51.364;7.246;2023-02-04T12:10:11;17.73;;;6.57;;
68050;SDS011;54839;51.364;7.246;2023-02-04T12:12:50;28.83;;;8.77;;
68050;SDS011;54839;51.364;7.246;2023-02-04T12:15:22;29.67;;;8.80;;
68050;SDS011;54839;51.364;7.246;2023-02-04T12:20:26;19.43;;;8.03;;
68050;SDS011;54839;51.364;7.246;2023-02-04T12:22:52;25.60;;;9.00;;
68050;SDS011;54839;51.364;7.246;2023-02-04T12:25:18;28.73;;;9.10;;
68050;SDS011;54839;51.364;7.246;2023-02-04T12:27:44;21.27;;;9.77;;
68050;SDS011;54839;51.364;7.246;2023-02-04T12:30:10;27.37;;;9.40;;
68050;SDS011;54839;51.364;7.246;2023-02-04T12:32:36;23.87;;;8.73;;
68050;SDS011;54839;51.364;7.246;2023-02-04T12:35:02;26.70;;;10.60;;
68050;SDS011;54839;51.364;7.246;2023-02-04T12:37:28;28.30;;;9.53;;
68050;SDS011;54839;51.364;7.246;2023-02-04T12:39:54;25.27;;;8.43;;
68050;SDS011;54839;51.364;7.246;2023-02-04T12:42:19;14.57;;;7.60;;
68050;SDS011;54839;51.364;7.246;2023-02-04T12:44:45;29.73;;;9.70;;
68050;SDS011;54839;51.364;7.246;2023-02-04T12:47:10;23.13;;;8.47;;
68050;SDS011;54839;51.364;7.246;2023-02-04T12:49:36;17.93;;;8.03;;
68050;SDS011;54839;51.364;7.246;2023-02-04T12:52:02;30.00;;;11.20;;
68050;SDS011;54839;51.364;7.246;2023-02-04T12:54:28;22.17;;;8.17;;
68050;SDS011;54839;51.364;7.246;2023-02-04T12:56:54;22.70;;;7.40;;
68050;SDS011;54839;51.364;7.246;2023-02-04T12:59:22;21.80;;;7.37;;
68050;SDS011;54839;51.364;7.246;2023-02-04T13:01:48;34.93;;;9.47;;
68050;SDS011;54839;51.364;7.246;2023-02-04T13:04:14;28.13;;;10.10;;
68050;SDS011;54839;51.364;7.246;2023-02-04T13:06:40;24.90;;;7.50;;
68050;SDS011;54839;51.364;7.246;2023-02-04T13:09:05;20.43;;;8.10;;
68050;SDS011;54839;51.364;7.246;2023-02-04T13:11:31;25.97;;;9.67;;
68050;SDS011;54839;51.364;7.246;2023-02-04T13:13:56;21.07;;;8.20;;
68050;SDS011;54839;51.364;7.246;2023-02-04T13:16:22;28.00;;;8.77;;
68050;SDS011;54839;51.364;7.246;2023-02-04T13:18:48;28.13;;;8.40;;
68050;SDS011;54839;51.364;7.246;2023-02-04T13:21:14;16.90;;;7.73;;
68050;SDS011;54839;51.364;7.246;2023-02-04T13:23:40;17.03;;;7.10;;
68050;SDS011;54839;51.364;7.246;2023-02-04T13:26:06;24.83;;;9.40;;
68050;SDS011;54839;51.364;7.246;2023-02-04T13:28:32;31.53;;;9.17;;
68050;SDS011;54839;51.364;7.246;2023-02-04T13:30:59;27.33;;;8.80;;
68050;SDS011;54839;51.364;7.246;2023-02-04T13:33:25;23.87;;;8.60;;
68050;SDS011;54839;51.364;7.246;2023-02-04T13:35:50;23.90;;;10.87;;
68050;SDS011;54839;51.364;7.246;2023-02-04T13:38:16;22.73;;;8.40;;
68050;SDS011;54839;51.364;7.246;2023-02-04T13:40:41;20.87;;;8.40;;
68050;SDS011;54839;51.364;7.246;2023-02-04T13:43:07;24.93;;;8.90;;
68050;SDS011;54839;51.364;7.246;2023-02-04T13:45:33;36.03;;;9.93;;
68050;SDS011;54839;51.364;7.246;2023-02-04T13:47:58;21.50;;;8.53;;
68050;SDS011;54839;51.364;7.246;2023-02-04T13:50:24;22.33;;;9.80;;
68050;SDS011;54839;51.364;7.246;2023-02-04T13:52:50;21.50;;;7.33;;
68050;SDS011;54839;51.364;7.246;2023-02-04T13:55:15;21.23;;;8.70;;
68050;SDS011;54839;51.364;7.246;2023-02-04T13:57:41;22.80;;;8.17;;
68050;SDS011;54839;51.364;7.246;2023-02-04T14:00:07;26.93;;;8.40;;
68050;SDS011;54839;51.364;7.246;2023-02-04T14:02:33;22.17;;;7.27;;
68050;SDS011;54839;51.364;7.246;2023-02-04T14:04:59;23.43;;;9.57;;
68050;SDS011;54839;51.364;7.246;2023-02-04T14:07:25;15.80;;;6.37;;
68050;SDS011;54839;51.364;7.246;2023-02-04T14:09:51;16.97;;;6.50;;
68050;SDS011;54839;51.364;7.246;2023-02-04T14:12:17;15.97;;;6.97;;
68050;SDS011;54839;51.364;7.246;2023-02-04T14:14:42;21.83;;;7.47;;
68050;SDS011;54839;51.364;7.246;2023-02-04T14:17:08;15.43;;;7.73;;
68050;SDS011;54839;51.364;7.246;2023-02-04T14:19:34;20.93;;;8.20;;
68050;SDS011;54839;51.364;7.246;2023-02-04T14:21:59;22.53;;;8.93;;
68050;SDS011;54839;51.364;7.246;2023-02-04T14:24:25;15.90;;;7.17;;
68050;SDS011;54839;51.364;7.246;2023-02-04T14:26:50;18.23;;;7.03;;
68050;SDS011;54839;51.364;7.246;2023-02-04T14:29:16;21.53;;;8.63;;
68050;SDS011;54839;51.364;7.246;2023-02-04T14:31:41;16.20;;;7.57;;
68050;SDS011;54839;51.364;7.246;2023-02-04T14:34:07;14.30;;;6.60;;
68050;SDS011;54839;51.364;7.246;2023-02-04T14:36:32;18.57;;;8.20;;
68050;SDS011;54839;51.364;7.246;2023-02-04T14:38:58;17.50;;;7.70;;
68050;SDS011;54839;51.364;7.246;2023-02-04T14:41:23;19.83;;;8.40;;
68050;SDS011;54839;51.364;7.246;2023-02-04T14:43:50;19.63;;;8.90;;
68050;SDS011;54839;51.364;7.246;2023-02-04T14:46:17;16.43;;;8.97;;
68050;SDS011;54839;51.364;7.246;2023-02-04T14:48:43;27.90;;;10.40;;
68050;SDS011;54839;51.364;7.246;2023-02-04T14:51:09;26.07;;;9.30;;
68050;SDS011;54839;51.364;7.246;2023-02-04T14:53:35;24.87;;;10.17;;
68050;SDS011;54839;51.364;7.246;2023-02-04T14:56:01;16.60;;;8.70;;
68050;SDS011;54839;51.364;7.246;2023-02-04T14:58:27;22.03;;;11.13;;
68050;SDS011;54839;51.364;7.246;2023-02-04T15:00:52;23.97;;;8.80;;
68050;SDS011;54839;51.364;7.246;2023-02-04T15:03:18;23.03;;;9.00;;
68050;SDS011;54839;51.364;7.246;2023-02-04T15:05:43;24.97;;;9.43;;
68050;SDS011;54839;51.364;7.246;2023-02-04T15:08:09;21.57;;;9.50;;
68050;SDS011;54839;51.364;7.246;2023-02-04T15:10:34;25.93;;;10.97;;
68050;SDS011;54839;51.364;7.246;2023-02-04T15:13:00;28.33;;;10.97;;